Time,TemperatureF,DewpointF,PressureIn,WindDirection,WindDirectionDegrees,WindSpeedMPH,WindSpeedGustMPH,Humidity,HourlyPrecipIn,Conditions,Clouds,dailyrainin,SoftwareType,DateUTC
2013-02-28 00:01:00,32.0,31.8,29.82,SW,225,4.2,-999.0,99,-99.99,,,0.00,Acu-Link.com,2013-02-28 06:01:00,
2013-02-28 00:16:00,32.0,31.8,29.82,NW,315,4.7,-999.0,99,-99.99,,,0.00,Acu-Link.com,2013-02-28 06:16:00,
2013-02-28 00:31:00,32.2,32.0,29.82,South,180,1.1,-999.0,99,-99.99,,,0.00,Acu-Link.com,2013-02-28 06:31:00,
2013-02-28 00:46:00,32.2,32.0,29.82,SW,225,5.8,-999.0,99,-99.99,,,0.00,Acu-Link.com,2013-02-28 06:46:00,
2013-02-28 01:02:00,32.4,32.2,29.82,SW,225,4.7,-999.0,99,-99.99,,,0.00,Acu-Link.com,2013-02-28 07:02:00,
2013-02-28 01:17:00,32.7,32.5,29.82,SW,225,4.7,-999.0,99,-99.99,,,0.00,Acu-Link.com,2013-02-28 07:17:00,
2013-02-28 01:32:00,32.7,32.5,29.82,WSW,247,3.7,-999.0,99,-99.99,,,0.00,Acu-Link.com,2013-02-28 07:32:00,
2013-02-28 01:47:00,32.7,32.5,29.82,West,270,6.8,-999.0,99,-99.99,,,0.00,Acu-Link.com,2013-02-28 07:47:00,
2013-02-28 02:02:00,32.7,32.5,29.82,West,270,3.7,-999.0,99,-99.99,,,0.00,Acu-Link.com,2013-02-28 08:02:00,
2013-02-28 02:17:00,32.7,32.5,29.82,West,270,4.2,-999.0,99,-99.99,,,0.00,Acu-Link.com,2013-02-28 08:17:00,
2013-02-28 02:32:00,32.7,32.5,29.82,West,270,5.3,-999.0,99,-99.99,,,0.00,Acu-Link.com,2013-02-28 08:32:00,
2013-02-28 02:47:00,32.7,32.5,29.83,WSW,247,3.7,-999.0,99,-99.99,,,0.00,Acu-Link.com,2013-02-28 08:47:00,
2013-02-28 03:19:00,32.9,32.7,29.82,West,270,4.7,-999.0,99,-99.99,,,0.00,Acu-Link.com,2013-02-28 09:19:00,
2013-02-28 03:34:00,32.7,32.5,29.84,WSW,247,3.7,-999.0,99,-99.99,,,0.00,Acu-Link.com,2013-02-28 09:34:00,
2013-02-28 03:49:00,34.5,34.2,29.84,WNW,292,10.9,-999.0,99,-99.99,,,0.00,Acu-Link.com,2013-02-28 09:49:00,
2013-02-28 04:04:00,32.9,32.7,29.84,WNW,292,3.7,-999.0,99,-99.99,,,0.00,Acu-Link.com,2013-02-28 10:04:00,
2013-02-28 04:19:00,32.7,32.5,29.85,WSW,247,5.3,-999.0,99,-99.99,,,0.00,Acu-Link.com,2013-02-28 10:19:00,
2013-02-28 04:34:00,32.9,32.7,29.85,WNW,292,8.9,-999.0,99,-99.99,,,0.00,Acu-Link.com,2013-02-28 10:34:00,
2013-02-28 04:49:00,32.9,32.7,29.85,NW,315,4.7,-999.0,99,-99.99,,,0.00,Acu-Link.com,2013-02-28 10:49:00,
2013-02-28 05:04:00,32.9,32.7,29.85,WNW,292,4.7,-999.0,99,-99.99,,,0.00,Acu-Link.com,2013-02-28 11:04:00,
2013-02-28 05:19:00,32.7,32.5,29.87,West,270,5.8,-999.0,99,-99.99,,,0.00,Acu-Link.com,2013-02-28 11:19:00,
2013-02-28 05:35:00,32.7,32.5,29.87,NW,315,5.8,-999.0,99,-99.99,,,0.00,Acu-Link.com,2013-02-28 11:35:00,
2013-02-28 05:50:00,32.9,32.7,29.88,NW,315,5.3,-999.0,99,-99.99,,,0.00,Acu-Link.com,2013-02-28 11:50:00,
2013-02-28 06:05:00,32.9,32.7,29.88,West,270,3.2,-999.0,99,-99.99,,,0.00,Acu-Link.com,2013-02-28 12:05:00,
2013-02-28 06:20:00,32.9,32.7,29.89,West,270,2.7,-999.0,99,-99.99,,,0.00,Acu-Link.com,2013-02-28 12:20:00,
2013-02-28 06:35:00,32.9,32.7,29.89,NW,315,4.2,-999.0,99,-99.99,,,0.00,Acu-Link.com,2013-02-28 12:35:00,
2013-02-28 06:50:00,32.9,32.7,29.89,South,180,3.7,-999.0,99,-99.99,,,0.00,Acu-Link.com,2013-02-28 12:50:00,
2013-02-28 07:05:00,33.3,33.0,29.90,WNW,292,4.7,-999.0,99,-99.99,,,0.00,Acu-Link.com,2013-02-28 13:05:00,
2013-02-28 07:20:00,33.3,33.0,29.90,SW,225,7.8,-999.0,99,-99.99,,,0.00,Acu-Link.com,2013-02-28 13:20:00,
2013-02-28 07:35:00,33.4,33.1,29.90,WSW,247,4.2,-999.0,99,-99.99,,,0.00,Acu-Link.com,2013-02-28 13:35:00,
2013-02-28 07:51:00,33.8,33.5,29.91,West,270,4.2,-999.0,99,-99.99,,,0.00,Acu-Link.com,2013-02-28 13:51:00,
2013-02-28 08:06:00,34.0,33.7,29.92,West,270,10.9,-999.0,99,-99.99,,,0.00,Acu-Link.com,2013-02-28 14:06:00,
2013-02-28 08:21:00,34.2,33.9,29.93,West,270,10.4,-999.0,99,-99.99,,,0.00,Acu-Link.com,2013-02-28 14:21:00,
2013-02-28 08:36:00,34.2,33.9,29.93,West,270,3.7,-999.0,99,-99.99,,,0.00,Acu-Link.com,2013-02-28 14:36:00,
2013-02-28 08:51:00,34.5,34.2,29.93,West,270,6.3,-999.0,99,-99.99,,,0.00,Acu-Link.com,2013-02-28 14:51:00,
2013-02-28 09:06:00,34.7,34.4,29.93,SW,225,5.3,-999.0,99,-99.99,,,0.00,Acu-Link.com,2013-02-28 15:06:00,
2013-02-28 09:21:00,35.2,34.9,29.94,West,270,3.7,-999.0,99,-99.99,,,0.00,Acu-Link.com,2013-02-28 15:21:00,
2013-02-28 09:37:00,35.1,34.8,29.95,West,270,6.8,-999.0,99,-99.99,,,0.00,Acu-Link.com,2013-02-28 15:37:00,
2013-02-28 09:52:00,35.2,34.9,29.95,West,270,8.3,-999.0,99,-99.99,,,0.00,Acu-Link.com,2013-02-28 15:52:00,
2013-02-28 10:07:00,35.1,34.8,29.96,WNW,292,4.7,-999.0,99,-99.99,,,0.00,Acu-Link.com,2013-02-28 16:07:00,
2013-02-28 10:22:00,35.2,34.9,29.96,SW,225,5.3,-999.0,99,-99.99,,,0.00,Acu-Link.com,2013-02-28 16:22:00,
2013-02-28 10:37:00,36.0,35.7,29.96,North,0,3.7,-999.0,99,-99.99,,,0.00,Acu-Link.com,2013-02-28 16:37:00,
2013-02-28 10:52:00,36.7,36.4,29.96,NW,315,5.8,-999.0,99,-99.99,,,0.00,Acu-Link.com,2013-02-28 16:52:00,
2013-02-28 11:07:00,37.2,36.9,29.96,West,270,7.8,-999.0,99,-99.99,,,0.00,Acu-Link.com,2013-02-28 17:07:00,
2013-02-28 11:22:00,37.8,37.5,29.96,NW,315,4.2,-999.0,99,-99.99,,,0.00,Acu-Link.com,2013-02-28 17:22:00,
2013-02-28 11:38:00,37.6,37.3,29.96,WNW,292,7.3,-999.0,99,-99.99,,,0.00,Acu-Link.com,2013-02-28 17:38:00,
2013-02-28 11:53:00,36.7,36.4,29.96,NNW,337,7.3,-999.0,99,-99.99,,,0.00,Acu-Link.com,2013-02-28 17:53:00,
2013-02-28 12:08:00,37.2,36.9,29.96,NW,315,7.3,-999.0,99,-99.99,,,0.00,Acu-Link.com,2013-02-28 18:08:00,
2013-02-28 12:23:00,37.4,37.1,29.96,West,270,5.8,-999.0,99,-99.99,,,0.00,Acu-Link.com,2013-02-28 18:23:00,
2013-02-28 12:38:00,37.0,36.7,29.96,West,270,7.3,-999.0,99,-99.99,,,0.00,Acu-Link.com,2013-02-28 18:38:00,
2013-02-28 12:53:00,37.6,37.3,29.97,NNW,337,5.8,-999.0,99,-99.99,,,0.00,Acu-Link.com,2013-02-28 18:53:00,
2013-02-28 13:08:00,37.8,37.5,29.97,West,270,7.8,-999.0,99,-99.99,,,0.00,Acu-Link.com,2013-02-28 19:08:00,
2013-02-28 13:23:00,37.9,37.6,29.95,WNW,292,6.3,-999.0,99,-99.99,,,0.00,Acu-Link.com,2013-02-28 19:23:00,
2013-02-28 13:38:00,37.6,37.3,29.96,NW,315,5.8,-999.0,99,-99.99,,,0.00,Acu-Link.com,2013-02-28 19:38:00,
2013-02-28 13:54:00,38.1,37.8,29.96,NW,315,7.8,-999.0,99,-99.99,,,0.00,Acu-Link.com,2013-02-28 19:54:00,
2013-02-28 14:09:00,37.9,37.6,29.96,WNW,292,7.3,-999.0,99,-99.99,,,0.00,Acu-Link.com,2013-02-28 20:09:00,
2013-02-28 14:24:00,37.9,37.6,29.97,NW,315,8.9,-999.0,99,-99.99,,,0.00,Acu-Link.com,2013-02-28 20:24:00,
2013-02-28 14:39:00,37.9,37.6,29.97,West,270,5.8,-999.0,99,-99.99,,,0.00,Acu-Link.com,2013-02-28 20:39:00,
2013-02-28 14:54:00,37.4,37.1,29.98,West,270,5.8,-999.0,99,-99.99,,,0.00,Acu-Link.com,2013-02-28 20:54:00,
2013-02-28 15:09:00,36.9,36.6,29.98,WNW,292,5.3,-999.0,99,-99.99,,,0.00,Acu-Link.com,2013-02-28 21:09:00,
2013-02-28 15:24:00,36.5,36.2,29.99,WNW,292,7.3,-999.0,99,-99.99,,,0.00,Acu-Link.com,2013-02-28 21:24:00,
2013-02-28 15:39:00,36.3,36.0,29.99,WNW,292,6.8,-999.0,99,-99.99,,,0.00,Acu-Link.com,2013-02-28 21:39:00,
2013-02-28 15:54:00,36.1,35.8,29.99,NNW,337,6.3,-999.0,99,-99.99,,,0.00,Acu-Link.com,2013-02-28 21:54:00,
2013-02-28 16:10:00,36.0,35.7,30.00,NW,315,9.9,-999.0,99,-99.99,,,0.00,Acu-Link.com,2013-02-28 22:10:00,
2013-02-28 16:25:00,36.3,36.0,30.00,NW,315,5.8,-999.0,99,-99.99,,,0.00,Acu-Link.com,2013-02-28 22:25:00,
2013-02-28 16:40:00,36.3,36.0,30.01,NW,315,8.9,-999.0,99,-99.99,,,0.00,Acu-Link.com,2013-02-28 22:40:00,
2013-02-28 16:55:00,36.1,35.8,30.01,NW,315,4.7,-999.0,99,-99.99,,,0.00,Acu-Link.com,2013-02-28 22:55:00,
2013-02-28 17:10:00,36.1,35.8,30.01,West,270,4.7,-999.0,99,-99.99,,,0.00,Acu-Link.com,2013-02-28 23:10:00,
2013-02-28 17:25:00,36.1,35.8,30.01,NW,315,4.7,-999.0,99,-99.99,,,0.00,Acu-Link.com,2013-02-28 23:25:00,
2013-02-28 17:40:00,35.6,35.3,30.01,West,270,4.7,-999.0,99,-99.99,,,0.00,Acu-Link.com,2013-02-28 23:40:00,
2013-02-28 17:55:00,35.6,35.3,30.01,WNW,292,6.3,-999.0,99,-99.99,,,0.00,Acu-Link.com,2013-02-28 23:55:00,
2013-02-28 18:10:00,35.2,34.9,30.01,NNW,337,7.8,-999.0,99,-99.99,,,0.00,Acu-Link.com,2013-03-01 00:10:00,
2013-02-28 18:26:00,35.1,34.8,30.01,WNW,292,6.3,-999.0,99,-99.99,,,0.00,Acu-Link.com,2013-03-01 00:26:00,
2013-02-28 18:41:00,34.7,34.4,30.02,NW,315,6.3,-999.0,99,-99.99,,,0.00,Acu-Link.com,2013-03-01 00:41:00,
2013-02-28 18:56:00,34.3,34.0,30.02,NW,315,4.7,-999.0,99,-99.99,,,0.00,Acu-Link.com,2013-03-01 00:56:00,
2013-02-28 19:11:00,34.2,33.9,30.02,NW,315,6.3,-999.0,99,-99.99,,,0.00,Acu-Link.com,2013-03-01 01:11:00,
2013-02-28 19:26:00,34.0,33.7,30.02,North,0,2.7,-999.0,99,-99.99,,,0.00,Acu-Link.com,2013-03-01 01:26:00,
2013-02-28 19:41:00,33.8,33.5,30.02,WSW,247,4.7,-999.0,99,-99.99,,,0.00,Acu-Link.com,2013-03-01 01:41:00,
2013-02-28 19:56:00,33.4,33.1,30.03,West,270,5.3,-999.0,99,-99.99,,,0.00,Acu-Link.com,2013-03-01 01:56:00,
2013-02-28 20:11:00,33.4,33.1,30.04,WNW,292,3.2,-999.0,99,-99.99,,,0.00,Acu-Link.com,2013-03-01 02:11:00,
2013-02-28 20:26:00,33.4,33.1,30.04,West,270,3.2,-999.0,99,-99.99,,,0.00,Acu-Link.com,2013-03-01 02:26:00,
2013-02-28 20:42:00,33.3,33.0,30.04,West,270,2.7,-999.0,99,-99.99,,,0.00,Acu-Link.com,2013-03-01 02:42:00,
2013-02-28 20:57:00,33.3,33.0,30.04,WSW,247,2.7,-999.0,99,-99.99,,,0.00,Acu-Link.com,2013-03-01 02:57:00,
2013-02-28 21:12:00,33.1,32.8,30.04,NW,315,4.2,-999.0,99,-99.99,,,0.00,Acu-Link.com,2013-03-01 03:12:00,
2013-02-28 21:27:00,33.1,32.8,30.04,WSW,247,4.2,-999.0,99,-99.99,,,0.00,Acu-Link.com,2013-03-01 03:27:00,
2013-02-28 21:42:00,33.1,32.8,30.04,NW,315,2.7,-999.0,99,-99.99,,,0.00,Acu-Link.com,2013-03-01 03:42:00,
2013-02-28 21:57:00,33.1,32.8,30.04,WNW,292,4.2,-999.0,99,-99.99,,,0.00,Acu-Link.com,2013-03-01 03:57:00,
2013-02-28 22:12:00,32.9,32.7,30.03,WNW,292,4.2,-999.0,99,-99.99,,,0.00,Acu-Link.com,2013-03-01 04:12:00,
2013-02-28 22:27:00,32.9,32.7,30.03,West,270,4.2,-999.0,99,-99.99,,,0.00,Acu-Link.com,2013-03-01 04:27:00,
2013-02-28 22:42:00,32.7,32.5,30.02,WNW,292,3.7,-999.0,99,-99.99,,,0.00,Acu-Link.com,2013-03-01 04:42:00,
2013-02-28 22:58:00,32.5,32.3,30.02,NW,315,3.7,-999.0,99,-99.99,,,0.00,Acu-Link.com,2013-03-01 04:58:00,
2013-02-28 23:13:00,32.5,32.3,30.01,West,270,3.2,-999.0,99,-99.99,,,0.00,Acu-Link.com,2013-03-01 05:13:00,
2013-02-28 23:28:00,32.7,32.5,30.02,WNW,292,4.2,-999.0,99,-99.99,,,0.00,Acu-Link.com,2013-03-01 05:28:00,
2013-02-28 23:43:00,32.7,32.5,30.02,NNE,22,3.2,-999.0,99,-99.99,,,0.00,Acu-Link.com,2013-03-01 05:43:00,
2013-02-28 23:58:00,32.5,32.3,30.01,WNW,292,4.7,-999.0,99,-99.99,,,0.00,Acu-Link.com,2013-03-01 05:58:00,